Thunder radar more information blitzortung!


Radar de pluja more information rain snow radar


Visita la nostra xarxa de llocs de meteo:

Template documentation
and downloads

And another site



Wind From: 11-12-2017 11:00 Until: 14:59 warning for: Wind Level: Yellow info button

Pagina Historial Weather Underground text

Diari Resum Agost 21, 2017 Unitats:  Mètric    Imperial   Tant
« Previous Dia
SegĂźent Dia »
Diari Setmana Mensual Anual Personalitzada
  Maxima: Minima: Media:
Temperatura: 32.7 °C 19.3 °C 26.3 °C
Punt de rosada: 20.1 °C 15.8 °C 18.2 °C
Humitat: 87 % 38 % 63 %
Wind Speed: 18.5 km/h 0.0 km/h 5.8 km/h
RĂ fegues de vent: 20.9 km/h - -
Vent:- - SSE
Pression baro: 1019.9 hPa 1014.8 hPa -
Precipitacions: 0.0 mm    
Historical Graphs
 
 
Dades de taula per Agost 21, 2017
Temps Temperatura Punt de rosada Pression baro Vent Wind Speed RĂ fegues de vent Humitat Rainfall Rate (Hourly)
00:04 22.3 °C 17.9 °C 1018.8 hPa SW 3.7 km/h 3.7 km/h 76 % 0.0 mm
00:05 20.5 °C 17.9 °C 1018.8 hPa Calm   3.2 km/h 85 % 0.0 mm
00:15 20.3 °C 17.5 °C 1018.8 hPa ENE 1.6 km/h 3.2 km/h 84 % 0.0 mm
00:25 20.3 °C 17.7 °C 1018.8 hPa Calm   1.6 km/h 85 % 0.0 mm
00:35 20.3 °C 17.5 °C 1018.8 hPa Calm   4.8 km/h 84 % 0.0 mm
00:45 20.2 °C 17.6 °C 1018.8 hPa Calm   1.6 km/h 85 % 0.0 mm
00:55 20.1 °C 17.5 °C 1018.8 hPa Calm   1.6 km/h 85 % 0.0 mm
01:05 20.0 °C 17.4 °C 1018.8 hPa Calm     85 % 0.0 mm
01:15 19.9 °C 17.5 °C 1018.8 hPa WSW 1.6 km/h 3.2 km/h 86 % 0.0 mm
01:25 19.9 °C 17.5 °C 1018.8 hPa SW 1.6 km/h 3.2 km/h 86 % 0.0 mm
01:35 19.9 °C 17.5 °C 1018.8 hPa Calm   1.6 km/h 86 % 0.0 mm
01:45 19.8 °C 17.4 °C 1018.8 hPa SW 1.6 km/h 3.2 km/h 86 % 0.0 mm
01:55 19.7 °C 17.3 °C 1018.8 hPa Calm     86 % 0.0 mm
02:05 19.6 °C 17.2 °C 1018.8 hPa Calm   1.6 km/h 86 % 0.0 mm
02:15 19.6 °C 17.2 °C 1018.8 hPa Calm   3.2 km/h 86 % 0.0 mm
02:25 19.6 °C 17.2 °C 1018.8 hPa WSW 1.6 km/h 3.2 km/h 86 % 0.0 mm
02:35 19.6 °C 17.2 °C 1018.8 hPa Calm   1.6 km/h 86 % 0.0 mm
02:45 19.5 °C 17.1 °C 1018.8 hPa WSW 1.6 km/h 1.6 km/h 86 % 0.0 mm
02:55 19.5 °C 17.1 °C 1018.8 hPa Calm     86 % 0.0 mm
03:05 19.4 °C 17.0 °C 1018.8 hPa Calm     86 % 0.0 mm
03:15 19.3 °C 16.9 °C 1018.8 hPa Calm   1.6 km/h 86 % 0.0 mm
03:25 19.3 °C 17.1 °C 1018.8 hPa Calm     87 % 0.0 mm
03:35 19.3 °C 17.1 °C 1018.8 hPa Calm     87 % 0.0 mm
03:45 19.4 °C 17.2 °C 1018.8 hPa Calm   1.6 km/h 87 % 0.0 mm
03:55 19.5 °C 17.1 °C 1018.8 hPa WSW 1.6 km/h 1.6 km/h 86 % 0.0 mm
04:05 19.6 °C 17.4 °C 1018.8 hPa Calm   3.2 km/h 87 % 0.0 mm
04:15 19.7 °C 17.3 °C 1018.8 hPa SW 3.2 km/h 4.8 km/h 86 % 0.0 mm
04:25 20.0 °C 17.4 °C 1018.8 hPa SW 1.6 km/h 3.2 km/h 85 % 0.0 mm
04:35 20.4 °C 17.8 °C 1018.8 hPa SW 1.6 km/h 3.2 km/h 85 % 0.0 mm
04:45 20.6 °C 17.8 °C 1018.8 hPa Calm   1.6 km/h 84 % 0.0 mm
04:55 20.9 °C 18.1 °C 1018.8 hPa Calm   1.6 km/h 84 % 0.0 mm
05:05 21.3 °C 18.3 °C 1018.8 hPa SE 1.6 km/h 3.2 km/h 83 % 0.0 mm
05:15 22.2 °C 19.0 °C 1018.8 hPa NNE 3.2 km/h 3.2 km/h 82 % 0.0 mm
05:25 22.6 °C 18.8 °C 1018.8 hPa North 1.6 km/h 4.8 km/h 79 % 0.0 mm
05:35 22.7 °C 18.4 °C 1019.9 hPa NE 4.8 km/h 6.4 km/h 77 % 0.0 mm
05:45 23.2 °C 18.5 °C 1018.8 hPa NE 3.2 km/h 6.4 km/h 75 % 0.0 mm
10:49 27.0 °C 19.6 °C 1018.8 hPa WSW 3.7 km/h 3.7 km/h 64 % 0.0 mm
10:54 26.7 °C 19.1 °C 1018.8 hPa East 4.2 km/h 4.2 km/h 63 % 0.0 mm
10:59 25.7 °C 17.9 °C 1018.8 hPa South 9.3 km/h 9.3 km/h 62 % 0.0 mm
11:04 26.6 °C 19.2 °C 1018.8 hPa ESE 5.6 km/h 5.6 km/h 64 % 0.0 mm
11:09 26.4 °C 18.8 °C 1018.8 hPa SE 7.4 km/h 7.4 km/h 63 % 0.0 mm
11:14 27.3 °C 19.6 °C 1018.8 hPa ESE 3.7 km/h 3.7 km/h 63 % 0.0 mm
11:19 27.5 °C 19.3 °C 1018.8 hPa ESE 3.7 km/h 3.7 km/h 61 % 0.0 mm
11:24 27.9 °C 19.7 °C 1018.8 hPa West 3.7 km/h 3.7 km/h 61 % 0.0 mm
11:29 28.0 °C 19.5 °C 1018.8 hPa East 5.6 km/h 5.6 km/h 60 % 0.0 mm
11:34 28.0 °C 19.5 °C 1018.8 hPa WSW 7.4 km/h 7.4 km/h 60 % 0.0 mm
11:39 27.9 °C 19.2 °C 1018.8 hPa ENE 5.6 km/h 5.6 km/h 59 % 0.0 mm
11:44 28.0 °C 18.9 °C 1018.8 hPa NE 5.6 km/h 5.6 km/h 58 % 0.0 mm
11:49 27.8 °C 18.8 °C 1018.8 hPa ENE 5.6 km/h 5.6 km/h 58 % 0.0 mm
11:54 27.8 °C 18.2 °C 1018.8 hPa South 9.3 km/h 9.3 km/h 56 % 0.0 mm
11:59 28.7 °C 19.1 °C 1017.8 hPa ESE 3.9 km/h 3.9 km/h 56 % 0.0 mm
12:04 28.7 °C 19.1 °C 1017.8 hPa NNE 3.7 km/h 3.7 km/h 56 % 0.0 mm
12:09 28.8 °C 19.2 °C 1017.8 hPa SSE 3.7 km/h 3.7 km/h 56 % 0.0 mm
12:14 29.0 °C 18.8 °C 1017.8 hPa WSW 5.6 km/h 5.6 km/h 54 % 0.0 mm
12:19 29.4 °C 18.8 °C 1017.8 hPa SW 4.7 km/h 4.7 km/h 53 % 0.0 mm
12:24 29.8 °C 18.6 °C 1017.8 hPa SE 3.7 km/h 3.9 km/h 51 % 0.0 mm
12:29 30.0 °C 18.8 °C 1016.8 hPa WSW 5.6 km/h 5.6 km/h 51 % 0.0 mm
12:34 30.1 °C 18.6 °C 1016.8 hPa South 5.8 km/h 5.8 km/h 50 % 0.0 mm
12:39 30.2 °C 18.3 °C 1016.8 hPa SSE 5.0 km/h 5.0 km/h 49 % 0.0 mm
12:44 30.9 °C 18.6 °C 1017.8 hPa South 11.1 km/h 11.1 km/h 48 % 0.0 mm
12:49 30.6 °C 18.7 °C 1017.8 hPa SW 9.3 km/h 9.3 km/h 49 % 0.0 mm
12:54 30.4 °C 18.5 °C 1017.8 hPa SSW 5.6 km/h 5.6 km/h 49 % 0.0 mm
12:59 30.0 °C 17.1 °C 1017.8 hPa ESE 5.8 km/h 5.8 km/h 46 % 0.0 mm
13:04 29.7 °C 16.8 °C 1017.8 hPa WSW 3.7 km/h 3.7 km/h 46 % 0.0 mm
13:09 30.3 °C 18.1 °C 1017.8 hPa West 9.3 km/h 9.3 km/h 48 % 0.0 mm
13:10 30.3 °C 18.1 °C 1017.8 hPa WSW 9.5 km/h 9.5 km/h 48 % 0.0 mm
13:15 30.7 °C 17.8 °C 1017.8 hPa SSE 3.9 km/h 3.9 km/h 46 % 0.0 mm
13:20 31.6 °C 18.2 °C 1017.8 hPa WSW 9.7 km/h 9.7 km/h 45 % 0.0 mm
13:25 31.2 °C 16.0 °C 1017.8 hPa SE 7.4 km/h 7.4 km/h 40 % 0.0 mm
13:30 31.3 °C 16.1 °C 1017.8 hPa NE 5.6 km/h 5.6 km/h 40 % 0.0 mm
13:35 30.8 °C 16.0 °C 1017.8 hPa East 7.4 km/h 7.4 km/h 41 % 0.0 mm
13:40 30.6 °C 15.8 °C 1017.8 hPa East 9.3 km/h 9.3 km/h 41 % 0.0 mm
13:45 31.0 °C 16.6 °C 1017.8 hPa South 9.7 km/h 9.7 km/h 42 % 0.0 mm
13:50 31.7 °C 16.8 °C 1017.8 hPa NNW 11.1 km/h 11.1 km/h 41 % 0.0 mm
13:55 31.7 °C 16.8 °C 1017.8 hPa WSW 5.6 km/h 5.6 km/h 41 % 0.0 mm
14:00 32.1 °C 16.8 °C 1016.8 hPa South 7.4 km/h 7.4 km/h 40 % 0.0 mm
14:05 32.4 °C 17.4 °C 1016.8 hPa SSW 8.0 km/h 11.3 km/h 41 % 0.0 mm
14:10 32.5 °C 17.6 °C 1016.8 hPa West 9.3 km/h 9.3 km/h 41 % 0.0 mm
14:15 32.1 °C 17.2 °C 1016.8 hPa NE 3.7 km/h 3.7 km/h 41 % 0.0 mm
14:20 32.6 °C 16.4 °C 1016.8 hPa SSW 12.6 km/h 12.6 km/h 38 % 0.0 mm
14:25 32.1 °C 16.4 °C 1016.8 hPa ESE 9.3 km/h 9.3 km/h 39 % 0.0 mm
14:30 32.3 °C 17.4 °C 1016.8 hPa ESE 11.1 km/h 11.1 km/h 41 % 0.0 mm
14:35 31.7 °C 17.6 °C 1016.8 hPa NE 9.3 km/h 9.3 km/h 43 % 0.0 mm
14:40 31.9 °C 17.8 °C 1016.8 hPa ESE 7.4 km/h 7.4 km/h 43 % 0.0 mm
14:45 31.5 °C 17.8 °C 1015.8 hPa SE 4.8 km/h 9.7 km/h 44 % 0.0 mm
14:50 30.4 °C 17.8 °C 1015.8 hPa ESE 13.0 km/h 13.0 km/h 47 % 0.0 mm
14:55 30.1 °C 18.2 °C 1015.8 hPa ESE 11.3 km/h 17.7 km/h 49 % 0.0 mm
15:00 30.0 °C 18.1 °C 1015.8 hPa East 10.0 km/h 10.0 km/h 49 % 0.0 mm
15:05 30.2 °C 18.6 °C 1015.8 hPa East 14.0 km/h 14.0 km/h 50 % 0.0 mm
15:10 29.8 °C 18.6 °C 1015.8 hPa East 8.0 km/h 20.9 km/h 51 % 0.0 mm
15:15 29.8 °C 18.9 °C 1015.8 hPa ESE 18.5 km/h 18.5 km/h 52 % 0.0 mm
15:20 29.6 °C 19.0 °C 1015.8 hPa ESE 13.7 km/h 13.7 km/h 53 % 0.0 mm
15:25 29.5 °C 19.2 °C 1015.8 hPa East 11.9 km/h 11.9 km/h 54 % 0.0 mm
15:30 29.7 °C 19.1 °C 1015.8 hPa ESE 14.8 km/h 14.8 km/h 53 % 0.0 mm
15:35 29.5 °C 18.9 °C 1015.8 hPa NNE 13.0 km/h 13.0 km/h 53 % 0.0 mm
15:40 29.5 °C 18.9 °C 1015.8 hPa ESE 9.3 km/h 9.3 km/h 53 % 0.0 mm
15:45 29.6 °C 19.0 °C 1015.8 hPa South 13.0 km/h 13.0 km/h 53 % 0.0 mm
15:50 30.4 °C 19.4 °C 1015.8 hPa SSW 7.4 km/h 7.4 km/h 52 % 0.0 mm
15:55 30.5 °C 19.6 °C 1015.8 hPa WSW 5.8 km/h 5.8 km/h 52 % 0.0 mm
16:00 30.6 °C 19.3 °C 1015.8 hPa SSW 13.0 km/h 13.0 km/h 51 % 0.0 mm
16:05 30.1 °C 19.2 °C 1015.8 hPa South 9.3 km/h 9.3 km/h 52 % 0.0 mm
16:10 31.0 °C 19.3 °C 1015.8 hPa SW 9.3 km/h 9.3 km/h 50 % 0.0 mm
16:15 31.5 °C 19.8 °C 1015.8 hPa WSW 10.0 km/h 10.0 km/h 50 % 0.0 mm
16:20 31.6 °C 19.6 °C 1015.8 hPa South 9.3 km/h 9.3 km/h 49 % 0.0 mm
16:25 32.0 °C 19.9 °C 1015.8 hPa SW 9.3 km/h 9.3 km/h 49 % 0.0 mm
16:30 32.2 °C 20.1 °C 1015.8 hPa SW 13.0 km/h 13.0 km/h 49 % 0.0 mm
16:35 32.5 °C 20.1 °C 1015.8 hPa South 9.3 km/h 9.3 km/h 48 % 0.0 mm
16:36 32.5 °C 20.1 °C 1015.8 hPa WSW 9.3 km/h 9.3 km/h 48 % 0.0 mm
16:41 32.5 °C 20.1 °C 1015.8 hPa SW 14.8 km/h 14.8 km/h 48 % 0.0 mm
16:46 32.4 °C 20.0 °C 1015.8 hPa West 9.5 km/h 9.5 km/h 48 % 0.0 mm
16:51 32.4 °C 19.7 °C 1015.8 hPa ESE 7.4 km/h 7.4 km/h 47 % 0.0 mm
16:56 32.5 °C 19.7 °C 1015.8 hPa SSW 10.0 km/h 10.0 km/h 47 % 0.0 mm
17:01 32.7 °C 19.9 °C 1015.8 hPa South 11.1 km/h 11.1 km/h 47 % 0.0 mm
17:06 32.3 °C 19.6 °C 1015.8 hPa ENE 5.6 km/h 5.6 km/h 47 % 0.0 mm
17:11 31.6 °C 19.3 °C 1015.8 hPa ESE 7.9 km/h 9.0 km/h 48 % 0.0 mm
17:16 31.4 °C 19.1 °C 1015.8 hPa East 7.4 km/h 7.4 km/h 48 % 0.0 mm
17:21 31.3 °C 19.3 °C 1015.8 hPa WSW 4.7 km/h 4.7 km/h 49 % 0.0 mm
17:26 31.6 °C 19.3 °C 1014.8 hPa ESE 5.6 km/h 5.6 km/h 48 % 0.0 mm
17:31 30.7 °C 19.1 °C 1014.8 hPa ESE 13.7 km/h 13.7 km/h 50 % 0.0 mm
17:36 29.7 °C 18.8 °C 1014.8 hPa ESE 13.0 km/h 13.7 km/h 52 % 0.0 mm
17:41 29.3 °C 18.7 °C 1015.8 hPa ESE 18.5 km/h 18.5 km/h 53 % 0.0 mm
17:46 29.8 °C 19.5 °C 1015.8 hPa ESE 9.3 km/h 9.3 km/h 54 % 0.0 mm
17:51 29.5 °C 18.9 °C 1015.8 hPa West 9.3 km/h 9.3 km/h 53 % 0.0 mm
17:56 28.9 °C 18.9 °C 1015.8 hPa WSW 7.4 km/h 7.4 km/h 55 % 0.0 mm
18:01 29.7 °C 19.4 °C 1015.8 hPa West 5.6 km/h 6.4 km/h 54 % 0.0 mm
18:06 29.8 °C 19.2 °C 1015.8 hPa NNE 5.6 km/h 5.6 km/h 53 % 0.0 mm
18:11 29.8 °C 19.2 °C 1015.8 hPa ESE 5.6 km/h 5.6 km/h 53 % 0.0 mm
18:16 30.1 °C 19.4 °C 1015.8 hPa SSW 9.3 km/h 9.3 km/h 53 % 0.0 mm
18:21 30.6 °C 19.6 °C 1015.8 hPa SW 7.4 km/h 7.4 km/h 52 % 0.0 mm
18:26 30.6 °C 19.6 °C 1015.8 hPa SSW 11.1 km/h 11.1 km/h 52 % 0.0 mm
18:31 30.5 °C 19.6 °C 1015.8 hPa SW 9.3 km/h 9.3 km/h 52 % 0.0 mm
18:36 30.2 °C 19.3 °C 1015.8 hPa SSW 9.5 km/h 9.5 km/h 52 % 0.0 mm
18:41 29.7 °C 18.8 °C 1015.8 hPa SSW 13.0 km/h 13.0 km/h 52 % 0.0 mm
18:46 29.4 °C 18.5 °C 1015.8 hPa WSW 11.1 km/h 11.1 km/h 52 % 0.0 mm
18:51 29.5 °C 18.6 °C 1015.8 hPa SW 9.3 km/h 9.3 km/h 52 % 0.0 mm
18:56 29.2 °C 18.3 °C 1015.8 hPa West 13.0 km/h 13.0 km/h 52 % 0.0 mm
18:57 29.1 °C 18.2 °C 1015.8 hPa WSW 9.3 km/h 9.3 km/h 52 % 0.0 mm
19:02 28.9 °C 18.7 °C 1015.8 hPa SW 14.8 km/h 14.8 km/h 54 % 0.0 mm
19:07 28.8 °C 18.6 °C 1015.8 hPa SW 14.8 km/h 14.8 km/h 54 % 0.0 mm
19:12 28.5 °C 18.3 °C 1015.8 hPa SW 7.9 km/h 7.9 km/h 54 % 0.0 mm
19:17 28.5 °C 18.6 °C 1015.8 hPa SSW 7.4 km/h 7.4 km/h 55 % 0.0 mm
19:22 28.3 °C 18.4 °C 1015.8 hPa West 14.8 km/h 14.8 km/h 55 % 0.0 mm
19:27 28.0 °C 18.4 °C 1015.8 hPa WSW 11.4 km/h 11.4 km/h 56 % 0.0 mm
19:32 27.8 °C 18.2 °C 1015.8 hPa SW 11.1 km/h 11.1 km/h 56 % 0.0 mm
19:37 27.7 °C 18.4 °C 1015.8 hPa SW 11.1 km/h 11.1 km/h 57 % 0.0 mm
19:42 27.5 °C 18.2 °C 1015.8 hPa SW 13.0 km/h 13.0 km/h 57 % 0.0 mm
19:47 27.6 °C 18.3 °C 1015.8 hPa SW 7.4 km/h 7.4 km/h 57 % 0.0 mm
19:52 27.5 °C 18.5 °C 1015.8 hPa SW 7.9 km/h 7.9 km/h 58 % 0.0 mm
19:57 27.1 °C 18.1 °C 1015.8 hPa SW 11.1 km/h 11.1 km/h 58 % 0.0 mm
20:02 27.1 °C 18.1 °C 1015.8 hPa SSW 3.7 km/h 3.7 km/h 58 % 0.0 mm
20:07 27.0 °C 18.3 °C 1015.8 hPa SW 7.4 km/h 7.4 km/h 59 % 0.0 mm
20:12 26.8 °C 18.4 °C 1015.8 hPa SSE 7.4 km/h 7.4 km/h 60 % 0.0 mm
20:15 23.3 °C 17.7 °C 1016.8 hPa SW 3.2 km/h 3.2 km/h 71 % 0.0 mm
20:17 26.4 °C 18.0 °C 1015.8 hPa Calm     60 % 0.0 mm
20:22 26.3 °C 18.2 °C 1015.8 hPa East 5.8 km/h 5.8 km/h 61 % 0.0 mm
20:25 23.1 °C 17.8 °C 1016.8 hPa SW 3.2 km/h 3.2 km/h 72 % 0.0 mm
20:27 26.0 °C 17.9 °C 1014.8 hPa West 2.6 km/h 3.2 km/h 61 % 0.0 mm
20:32 25.6 °C 17.5 °C 1014.8 hPa East 7.4 km/h 7.4 km/h 61 % 0.0 mm
20:35 23.0 °C 17.9 °C 1016.8 hPa SW 1.6 km/h 3.2 km/h 73 % 0.0 mm
20:37 25.4 °C 17.6 °C 1014.8 hPa ESE 7.9 km/h 7.9 km/h 62 % 0.0 mm
20:42 25.2 °C 17.7 °C 1014.8 hPa ENE 5.6 km/h 5.6 km/h 63 % 0.0 mm
20:45 22.9 °C 18.2 °C 1016.8 hPa WSW 1.6 km/h 1.6 km/h 75 % 0.0 mm
20:47 25.1 °C 17.6 °C 1014.8 hPa East 7.4 km/h 7.4 km/h 63 % 0.0 mm
20:52 25.0 °C 17.7 °C 1014.8 hPa ESE 5.6 km/h 5.6 km/h 64 % 0.0 mm
20:55 22.8 °C 18.1 °C 1016.8 hPa WSW 1.6 km/h 3.2 km/h 75 % 0.0 mm
20:57 24.9 °C 17.9 °C 1015.8 hPa East 5.8 km/h 5.8 km/h 65 % 0.0 mm
21:02 24.7 °C 17.7 °C 1015.8 hPa ESE 5.6 km/h 5.6 km/h 65 % 0.0 mm
21:05 22.8 °C 18.3 °C 1015.8 hPa WSW 3.2 km/h 4.8 km/h 76 % 0.0 mm
21:07 24.6 °C 17.6 °C 1015.8 hPa ENE 7.4 km/h 7.4 km/h 65 % 0.0 mm
21:12 24.5 °C 17.7 °C 1016.8 hPa NE 7.4 km/h 7.4 km/h 66 % 0.0 mm
21:15 22.7 °C 18.2 °C 1016.8 hPa WSW 1.6 km/h 3.2 km/h 76 % 0.0 mm
21:17 24.4 °C 17.6 °C 1016.8 hPa NE 9.3 km/h 9.3 km/h 66 % 0.0 mm
21:22 24.3 °C 17.6 °C 1016.8 hPa ENE 13.0 km/h 13.0 km/h 66 % 0.0 mm
21:25 22.6 °C 18.4 °C 1016.8 hPa WSW 1.6 km/h 4.8 km/h 77 % 0.0 mm
21:27 24.3 °C 17.8 °C 1015.8 hPa ENE 7.4 km/h 7.4 km/h 67 % 0.0 mm
21:32 24.2 °C 17.7 °C 1015.8 hPa ENE 5.6 km/h 5.6 km/h 67 % 0.0 mm
21:35 22.4 °C 18.4 °C 1016.8 hPa Calm   3.2 km/h 78 % 0.0 mm
21:37 24.1 °C 17.6 °C 1015.8 hPa ENE 5.6 km/h 5.6 km/h 67 % 0.0 mm
21:42 24.0 °C 17.7 °C 1015.8 hPa East 5.6 km/h 5.6 km/h 68 % 0.0 mm
21:45 22.2 °C 18.2 °C 1015.8 hPa SW 3.2 km/h 3.2 km/h 78 % 0.0 mm
21:47 24.0 °C 17.7 °C 1015.8 hPa NNE 3.9 km/h 3.9 km/h 68 % 0.0 mm
21:52 23.9 °C 17.9 °C 1015.8 hPa ENE 5.6 km/h 5.6 km/h 69 % 0.0 mm
21:55 22.0 °C 18.2 °C 1015.8 hPa SW 1.6 km/h 3.2 km/h 79 % 0.0 mm
21:57 23.8 °C 17.8 °C 1016.8 hPa NNE 7.4 km/h 7.4 km/h 69 % 0.0 mm
22:02 23.8 °C 17.8 °C 1016.8 hPa East 3.7 km/h 3.7 km/h 69 % 0.0 mm
22:05 21.9 °C 18.1 °C 1015.8 hPa SW 1.6 km/h 3.2 km/h 79 % 0.0 mm
22:07 23.8 °C 17.8 °C 1016.8 hPa NE 5.6 km/h 5.6 km/h 69 % 0.0 mm
22:12 23.7 °C 17.7 °C 1016.8 hPa ENE 3.7 km/h 3.7 km/h 69 % 0.0 mm
22:15 21.8 °C 18.2 °C 1015.8 hPa Calm   3.2 km/h 80 % 0.0 mm
22:17 23.7 °C 17.7 °C 1016.8 hPa NE 6.9 km/h 6.9 km/h 69 % 0.0 mm
22:22 23.7 °C 17.7 °C 1016.8 hPa East 4.2 km/h 4.2 km/h 69 % 0.0 mm
22:25 21.7 °C 18.1 °C 1015.8 hPa SW 1.6 km/h 3.2 km/h 80 % 0.0 mm
22:27 23.6 °C 17.6 °C 1016.8 hPa NNE 2.6 km/h 2.6 km/h 69 % 0.0 mm
22:32 23.5 °C 17.5 °C 1016.8 hPa ENE 1.9 km/h 2.3 km/h 69 % 0.0 mm
22:35 21.6 °C 18.2 °C 1015.8 hPa Calm   3.2 km/h 81 % 0.0 mm
22:37 23.4 °C 17.2 °C 1016.8 hPa NE 3.9 km/h 3.9 km/h 68 % 0.0 mm
22:42 23.4 °C 17.2 °C 1016.8 hPa ENE 3.7 km/h 3.7 km/h 68 % 0.0 mm
22:45 21.5 °C 18.1 °C 1015.8 hPa SW 1.6 km/h 3.2 km/h 81 % 0.0 mm
22:47 23.4 °C 17.2 °C 1016.8 hPa NE 3.7 km/h 3.7 km/h 68 % 0.0 mm
22:52 23.3 °C 17.1 °C 1016.8 hPa NE 3.7 km/h   68 % 0.0 mm
22:55 21.5 °C 18.3 °C 1015.8 hPa Calm   1.6 km/h 82 % 0.0 mm
22:57 23.3 °C 17.1 °C 1016.8 hPa NE 3.7 km/h 3.7 km/h 68 % 0.0 mm
23:02 23.2 °C 16.9 °C 1016.8 hPa ENE 3.7 km/h 3.7 km/h 68 % 0.0 mm
23:05 21.4 °C 18.2 °C 1015.8 hPa Calm   3.2 km/h 82 % 0.0 mm
23:07 23.3 °C 17.1 °C 1016.8 hPa ENE 3.7 km/h 3.7 km/h 68 % 0.0 mm
23:12 23.3 °C 17.1 °C 1017.8 hPa East 1.9 km/h   68 % 0.0 mm
23:15 21.4 °C 18.2 °C 1015.8 hPa WSW 1.6 km/h 1.6 km/h 82 % 0.0 mm
23:17 23.2 °C 16.9 °C 1017.8 hPa NE 2.6 km/h 2.6 km/h 68 % 0.0 mm
23:22 23.3 °C 17.1 °C 1017.8 hPa NE 1.9 km/h 1.9 km/h 68 % 0.0 mm
23:25 21.4 °C 18.4 °C 1015.8 hPa Calm   1.6 km/h 83 % 0.0 mm
23:27 23.3 °C 17.1 °C 1016.8 hPa NE 1.9 km/h 1.9 km/h 68 % 0.0 mm
23:32 23.3 °C 17.1 °C 1016.8 hPa Calm     68 % 0.0 mm
23:35 21.3 °C 18.3 °C 1015.8 hPa Calm   3.2 km/h 83 % 0.0 mm
23:37 23.3 °C 17.1 °C 1016.8 hPa Calm     68 % 0.0 mm
23:42 23.3 °C 17.1 °C 1016.8 hPa SW 1.9 km/h   68 % 0.0 mm
23:45 21.3 °C 18.3 °C 1015.8 hPa Calm     83 % 0.0 mm
23:47 23.3 °C 17.1 °C 1016.8 hPa SW 2.6 km/h   68 % 0.0 mm
23:52 23.3 °C 17.3 °C 1016.8 hPa SW 2.6 km/h 2.6 km/h 69 % 0.0 mm
23:55 21.3 °C 18.3 °C 1015.8 hPa Calm     83 % 0.0 mm
23:58 23.3 °C 17.3 °C 1016.8 hPa SW 1.9 km/h   69 % 0.0 mm
Meteo Sesrovires
Elogis d' Weather Underground - 3.75 mb

Guio original per  Jim McMurry - jmcmurry@mwt.net Adaptat per a la plantilla per  Wim van der Kuil - Leuven-Template.eu

Trobareu la nostra informacio del temps tambe a:

Weather Underground

AWEKAS